sensor_id;sensor_type;location;lat;lon;timestamp;pressure;altitude;pressure_sealevel;temperature;humidity
41078;BME280;26823;42.662;23.352;2023-02-23T00:01:36;94609.44;;;5.89;68.72
41078;BME280;26823;42.662;23.352;2023-02-23T00:04:02;94609.44;;;5.89;68.92
41078;BME280;26823;42.662;23.352;2023-02-23T00:06:29;94618.53;;;5.88;69.14
41078;BME280;26823;42.662;23.352;2023-02-23T00:08:55;94633.88;;;5.93;69.45
41078;BME280;26823;42.662;23.352;2023-02-23T00:11:23;94627.66;;;5.87;68.99
41078;BME280;26823;42.662;23.352;2023-02-23T00:13:49;94628.81;;;5.69;70.25
41078;BME280;26823;42.662;23.352;2023-02-23T00:16:17;94636.00;;;5.63;70.32
41078;BME280;26823;42.662;23.352;2023-02-23T00:18:48;94637.50;;;5.54;70.29
41078;BME280;26823;42.662;23.352;2023-02-23T00:21:26;94644.81;;;5.59;70.63
41078;BME280;26823;42.662;23.352;2023-02-23T00:23:57;94649.09;;;5.60;70.51
41078;BME280;26823;42.662;23.352;2023-02-23T00:26:24;94632.41;;;5.52;70.56
41078;BME280;26823;42.662;23.352;2023-02-23T00:28:52;94647.50;;;5.59;70.25
41078;BME280;26823;42.662;23.352;2023-02-23T00:31:20;94641.00;;;5.54;70.25
41078;BME280;26823;42.662;23.352;2023-02-23T00:33:51;94642.56;;;5.50;69.99
41078;BME280;26823;42.662;23.352;2023-02-23T00:36:19;94643.66;;;5.54;70.17
41078;BME280;26823;42.662;23.352;2023-02-23T00:38:45;94625.78;;;5.38;69.75
41078;BME280;26823;42.662;23.352;2023-02-23T00:41:12;94627.59;;;5.32;70.10
41078;BME280;26823;42.662;23.352;2023-02-23T00:43:42;94640.06;;;5.44;69.71
41078;BME280;26823;42.662;23.352;2023-02-23T00:46:12;94622.34;;;5.43;69.20
41078;BME280;26823;42.662;23.352;2023-02-23T00:48:40;94642.72;;;5.66;68.41
41078;BME280;26823;42.662;23.352;2023-02-23T00:51:06;94631.69;;;5.62;68.13
41078;BME280;26823;42.662;23.352;2023-02-23T00:53:31;94626.13;;;5.69;67.72
41078;BME280;26823;42.662;23.352;2023-02-23T00:55:57;94626.03;;;5.59;68.16
41078;BME280;26823;42.662;23.352;2023-02-23T00:58:24;94624.47;;;5.63;67.87
41078;BME280;26823;42.662;23.352;2023-02-23T01:00:58;94638.94;;;5.62;68.03
41078;BME280;26823;42.662;23.352;2023-02-23T01:03:24;94622.72;;;5.51;68.23
41078;BME280;26823;42.662;23.352;2023-02-23T01:05:50;94619.84;;;5.58;67.91
41078;BME280;26823;42.662;23.352;2023-02-23T01:08:17;94637.09;;;5.67;68.40
41078;BME280;26823;42.662;23.352;2023-02-23T01:10:44;94628.31;;;5.72;67.81
41078;BME280;26823;42.662;23.352;2023-02-23T01:13:26;94637.41;;;5.71;67.85
41078;BME280;26823;42.662;23.352;2023-02-23T01:15:52;94635.59;;;5.77;67.43
41078;BME280;26823;42.662;23.352;2023-02-23T01:18:19;94639.50;;;5.64;68.78
41078;BME280;26823;42.662;23.352;2023-02-23T01:20:45;94639.69;;;5.57;67.91
41078;BME280;26823;42.662;23.352;2023-02-23T01:23:14;94621.81;;;5.68;67.67
41078;BME280;26823;42.662;23.352;2023-02-23T01:25:43;94620.94;;;5.62;67.86
41078;BME280;26823;42.662;23.352;2023-02-23T01:28:10;94603.31;;;5.44;68.20
41078;BME280;26823;42.662;23.352;2023-02-23T01:30:36;94628.81;;;5.69;67.97
41078;BME280;26823;42.662;23.352;2023-02-23T01:33:01;94618.78;;;5.59;67.77
41078;BME280;26823;42.662;23.352;2023-02-23T01:35:28;94636.44;;;5.55;68.17
41078;BME280;26823;42.662;23.352;2023-02-23T01:37:53;94624.19;;;5.42;68.86
41078;BME280;26823;42.662;23.352;2023-02-23T01:40:21;94633.88;;;5.43;68.71
41078;BME280;26823;42.662;23.352;2023-02-23T01:47:55;94627.47;;;5.44;69.04
41078;BME280;26823;42.662;23.352;2023-02-23T01:50:24;94628.50;;;5.43;69.57
41078;BME280;26823;42.662;23.352;2023-02-23T01:52:51;94630.88;;;5.39;69.63
41078;BME280;26823;42.662;23.352;2023-02-23T01:55:18;94625.66;;;5.50;69.63
41078;BME280;26823;42.662;23.352;2023-02-23T01:57:50;94618.56;;;5.38;69.16
41078;BME280;26823;42.662;23.352;2023-02-23T02:00:18;94618.19;;;5.30;69.25
41078;BME280;26823;42.662;23.352;2023-02-23T02:02:44;94628.34;;;5.28;69.79
41078;BME280;26823;42.662;23.352;2023-02-23T02:05:14;94627.84;;;5.31;69.81
41078;BME280;26823;42.662;23.352;2023-02-23T02:07:45;94612.88;;;5.13;70.41
41078;BME280;26823;42.662;23.352;2023-02-23T02:10:12;94608.34;;;5.13;70.40
41078;BME280;26823;42.662;23.352;2023-02-23T02:12:40;94623.44;;;5.19;70.29
41078;BME280;26823;42.662;23.352;2023-02-23T02:15:07;94612.75;;;5.25;70.52
41078;BME280;26823;42.662;23.352;2023-02-23T02:37:27;94628.44;;;4.94;70.71
41078;BME280;26823;42.662;23.352;2023-02-23T02:48:05;94616.84;;;4.88;71.97
41078;BME280;26823;42.662;23.352;2023-02-23T02:53:08;94614.97;;;4.88;71.28
41078;BME280;26823;42.662;23.352;2023-02-23T02:55:39;94617.97;;;4.92;71.07
41078;BME280;26823;42.662;23.352;2023-02-23T02:58:08;94619.69;;;4.81;71.06
41078;BME280;26823;42.662;23.352;2023-02-23T03:00:45;94615.47;;;4.85;70.82
41078;BME280;26823;42.662;23.352;2023-02-23T03:03:37;94613.97;;;4.72;71.75
41078;BME280;26823;42.662;23.352;2023-02-23T03:06:35;94608.94;;;4.59;71.62
41078;BME280;26823;42.662;23.352;2023-02-23T03:21:30;94627.03;;;4.69;73.09
41078;BME280;26823;42.662;23.352;2023-02-23T03:24:38;94628.41;;;4.71;72.79
41078;BME280;26823;42.662;23.352;2023-02-23T03:34:15;94629.97;;;4.50;71.99
41078;BME280;26823;42.662;23.352;2023-02-23T03:37:11;94634.75;;;4.31;72.91
41078;BME280;26823;42.662;23.352;2023-02-23T03:40:09;94626.97;;;4.13;74.29
41078;BME280;26823;42.662;23.352;2023-02-23T03:42:57;94632.47;;;4.23;73.88
41078;BME280;26823;42.662;23.352;2023-02-23T03:45:45;94643.19;;;4.23;74.94
41078;BME280;26823;42.662;23.352;2023-02-23T03:48:32;94637.38;;;4.26;74.68
41078;BME280;26823;42.662;23.352;2023-02-23T03:51:18;94651.31;;;4.28;74.26
41078;BME280;26823;42.662;23.352;2023-02-23T03:54:09;94650.66;;;4.21;75.23
41078;BME280;26823;42.662;23.352;2023-02-23T03:56:57;94653.91;;;4.23;75.50
41078;BME280;26823;42.662;23.352;2023-02-23T03:59:47;94651.56;;;4.27;75.03
41078;BME280;26823;42.662;23.352;2023-02-23T04:02:35;94658.53;;;4.28;74.29
41078;BME280;26823;42.662;23.352;2023-02-23T04:05:21;94625.34;;;4.12;74.49
41078;BME280;26823;42.662;23.352;2023-02-23T04:08:08;94651.00;;;4.24;74.89
41078;BME280;26823;42.662;23.352;2023-02-23T04:11:00;94654.66;;;4.18;74.42
41078;BME280;26823;42.662;23.352;2023-02-23T04:13:47;94653.81;;;4.18;74.78
41078;BME280;26823;42.662;23.352;2023-02-23T04:16:16;94650.16;;;4.07;75.62
41078;BME280;26823;42.662;23.352;2023-02-23T04:18:42;94652.94;;;4.12;75.27
41078;BME280;26823;42.662;23.352;2023-02-23T04:21:07;94645.38;;;4.09;76.18
41078;BME280;26823;42.662;23.352;2023-02-23T04:23:34;94644.31;;;4.10;75.49
41078;BME280;26823;42.662;23.352;2023-02-23T04:26:00;94655.69;;;4.17;74.96
41078;BME280;26823;42.662;23.352;2023-02-23T04:28:26;94649.03;;;4.20;74.35
41078;BME280;26823;42.662;23.352;2023-02-23T04:30:52;94649.28;;;4.18;74.81
41078;BME280;26823;42.662;23.352;2023-02-23T04:33:18;94634.66;;;4.09;74.74
41078;BME280;26823;42.662;23.352;2023-02-23T04:35:44;94655.84;;;4.11;75.15
41078;BME280;26823;42.662;23.352;2023-02-23T04:38:09;94655.34;;;4.14;75.58
41078;BME280;26823;42.662;23.352;2023-02-23T04:40:35;94651.63;;;4.15;75.00
41078;BME280;26823;42.662;23.352;2023-02-23T04:43:00;94659.50;;;4.04;75.38
41078;BME280;26823;42.662;23.352;2023-02-23T04:45:26;94655.69;;;4.00;76.01
41078;BME280;26823;42.662;23.352;2023-02-23T04:47:52;94657.69;;;4.10;75.61
41078;BME280;26823;42.662;23.352;2023-02-23T04:50:18;94622.16;;;3.81;75.18
41078;BME280;26823;42.662;23.352;2023-02-23T04:52:44;94648.91;;;3.81;76.49
41078;BME280;26823;42.662;23.352;2023-02-23T04:55:22;94652.78;;;3.73;76.70
41078;BME280;26823;42.662;23.352;2023-02-23T04:57:47;94662.28;;;3.81;76.71
41078;BME280;26823;42.662;23.352;2023-02-23T05:00:14;94662.13;;;3.87;76.63
41078;BME280;26823;42.662;23.352;2023-02-23T05:02:40;94665.13;;;3.91;76.59
41078;BME280;26823;42.662;23.352;2023-02-23T05:05:06;94664.78;;;3.87;77.19
41078;BME280;26823;42.662;23.352;2023-02-23T05:07:33;94655.63;;;3.83;77.41
41078;BME280;26823;42.662;23.352;2023-02-23T05:09:59;94661.31;;;3.87;77.56
41078;BME280;26823;42.662;23.352;2023-02-23T05:12:24;94654.75;;;3.95;77.74
41078;BME280;26823;42.662;23.352;2023-02-23T05:14:50;94664.00;;;4.04;77.20
41078;BME280;26823;42.662;23.352;2023-02-23T05:17:15;94652.19;;;4.00;76.76
41078;BME280;26823;42.662;23.352;2023-02-23T05:19:41;94664.44;;;3.96;76.18
41078;BME280;26823;42.662;23.352;2023-02-23T05:22:06;94672.53;;;4.01;77.01
41078;BME280;26823;42.662;23.352;2023-02-23T05:24:31;94682.28;;;4.07;76.01
41078;BME280;26823;42.662;23.352;2023-02-23T05:26:57;94663.75;;;3.88;76.48
41078;BME280;26823;42.662;23.352;2023-02-23T05:29:23;94677.63;;;3.85;76.22
41078;BME280;26823;42.662;23.352;2023-02-23T05:31:48;94672.50;;;3.84;76.53
41078;BME280;26823;42.662;23.352;2023-02-23T05:34:14;94676.69;;;3.80;77.34
41078;BME280;26823;42.662;23.352;2023-02-23T05:36:41;94682.13;;;3.97;76.66
41078;BME280;26823;42.662;23.352;2023-02-23T05:39:07;94665.97;;;3.91;76.14
41078;BME280;26823;42.662;23.352;2023-02-23T05:41:33;94690.34;;;3.95;75.91
41078;BME280;26823;42.662;23.352;2023-02-23T05:43:58;94688.75;;;3.94;76.48
41078;BME280;26823;42.662;23.352;2023-02-23T05:46:25;94690.13;;;3.97;76.34
41078;BME280;26823;42.662;23.352;2023-02-23T05:48:56;94700.69;;;4.03;76.12
41078;BME280;26823;42.662;23.352;2023-02-23T05:51:24;94692.75;;;4.08;76.36
41078;BME280;26823;42.662;23.352;2023-02-23T05:53:49;94705.84;;;4.22;76.37
41078;BME280;26823;42.662;23.352;2023-02-23T05:56:16;94704.13;;;4.16;75.90
41078;BME280;26823;42.662;23.352;2023-02-23T05:58:54;94703.66;;;4.36;76.30
41078;BME280;26823;42.662;23.352;2023-02-23T06:01:21;94699.38;;;4.35;75.46
41078;BME280;26823;42.662;23.352;2023-02-23T06:03:47;94709.03;;;4.53;75.24
41078;BME280;26823;42.662;23.352;2023-02-23T06:06:14;94712.03;;;4.90;74.29
41078;BME280;26823;42.662;23.352;2023-02-23T06:08:39;94713.69;;;6.52;67.40
41078;BME280;26823;42.662;23.352;2023-02-23T06:11:05;94719.97;;;8.07;61.65
41078;BME280;26823;42.662;23.352;2023-02-23T06:13:31;94697.69;;;9.40;54.90
41078;BME280;26823;42.662;23.352;2023-02-23T06:15:58;94726.56;;;10.71;50.98
41078;BME280;26823;42.662;23.352;2023-02-23T06:18:24;94720.88;;;10.22;50.47
41078;BME280;26823;42.662;23.352;2023-02-23T06:20:50;94719.16;;;9.87;51.10
41078;BME280;26823;42.662;23.352;2023-02-23T06:23:15;94726.91;;;10.04;50.87
41078;BME280;26823;42.662;23.352;2023-02-23T06:25:42;94737.59;;;9.64;52.92
41078;BME280;26823;42.662;23.352;2023-02-23T06:28:08;94731.84;;;9.81;53.13
41078;BME280;26823;42.662;23.352;2023-02-23T06:30:35;94730.09;;;9.04;54.77
41078;BME280;26823;42.662;23.352;2023-02-23T06:33:01;94717.97;;;10.08;51.68
41078;BME280;26823;42.662;23.352;2023-02-23T06:35:26;94727.47;;;9.95;49.80
41078;BME280;26823;42.662;23.352;2023-02-23T06:37:52;94725.19;;;8.34;55.35
41078;BME280;26823;42.662;23.352;2023-02-23T06:40:18;94736.25;;;9.61;53.13
41078;BME280;26823;42.662;23.352;2023-02-23T06:42:43;94729.66;;;10.49;48.74
41078;BME280;26823;42.662;23.352;2023-02-23T06:45:09;94716.78;;;11.68;46.01
41078;BME280;26823;42.662;23.352;2023-02-23T06:47:35;94741.00;;;12.51;43.71
41078;BME280;26823;42.662;23.352;2023-02-23T06:50:00;94753.66;;;13.13;41.92
41078;BME280;26823;42.662;23.352;2023-02-23T06:52:28;94758.53;;;13.49;41.32
41078;BME280;26823;42.662;23.352;2023-02-23T06:54:53;94746.59;;;13.64;41.02
41078;BME280;26823;42.662;23.352;2023-02-23T06:57:19;94748.63;;;13.86;40.67
41078;BME280;26823;42.662;23.352;2023-02-23T06:59:46;94745.50;;;14.35;39.45
41078;BME280;26823;42.662;23.352;2023-02-23T07:02:12;94739.25;;;14.34;39.41
41078;BME280;26823;42.662;23.352;2023-02-23T07:04:37;94756.06;;;15.24;37.79
41078;BME280;26823;42.662;23.352;2023-02-23T07:07:03;94740.34;;;14.98;37.54
41078;BME280;26823;42.662;23.352;2023-02-23T07:09:28;94746.00;;;13.34;40.46
41078;BME280;26823;42.662;23.352;2023-02-23T07:11:54;94748.56;;;12.54;42.57
41078;BME280;26823;42.662;23.352;2023-02-23T07:14:19;94738.44;;;11.93;44.20
41078;BME280;26823;42.662;23.352;2023-02-23T07:16:45;94730.66;;;12.34;43.80
41078;BME280;26823;42.662;23.352;2023-02-23T07:19:10;94742.00;;;12.17;43.95
41078;BME280;26823;42.662;23.352;2023-02-23T07:21:36;94755.72;;;12.02;45.00
41078;BME280;26823;42.662;23.352;2023-02-23T07:24:01;94755.84;;;12.59;43.63
41078;BME280;26823;42.662;23.352;2023-02-23T07:26:29;94749.44;;;12.69;43.40
41078;BME280;26823;42.662;23.352;2023-02-23T07:28:55;94739.66;;;12.68;42.87
41078;BME280;26823;42.662;23.352;2023-02-23T07:31:20;94748.63;;;12.68;43.62
41078;BME280;26823;42.662;23.352;2023-02-23T07:33:45;94744.06;;;12.64;43.16
41078;BME280;26823;42.662;23.352;2023-02-23T07:36:11;94733.53;;;12.81;43.16
41078;BME280;26823;42.662;23.352;2023-02-23T07:38:36;94737.31;;;12.80;42.45
41078;BME280;26823;42.662;23.352;2023-02-23T07:41:03;94728.94;;;13.15;42.59
41078;BME280;26823;42.662;23.352;2023-02-23T07:43:29;94736.13;;;14.13;40.35
41078;BME280;26823;42.662;23.352;2023-02-23T07:45:58;94732.94;;;13.83;40.92
41078;BME280;26823;42.662;23.352;2023-02-23T07:48:25;94712.25;;;14.38;39.92
41078;BME280;26823;42.662;23.352;2023-02-23T07:50:50;94738.69;;;14.74;38.50
41078;BME280;26823;42.662;23.352;2023-02-23T07:53:16;94738.84;;;15.60;37.61
41078;BME280;26823;42.662;23.352;2023-02-23T07:55:41;94724.84;;;15.53;37.21
41078;BME280;26823;42.662;23.352;2023-02-23T07:58:07;94734.66;;;15.31;37.32
41078;BME280;26823;42.662;23.352;2023-02-23T08:00:34;94729.53;;;16.33;35.79
41078;BME280;26823;42.662;23.352;2023-02-23T08:03:01;94736.09;;;17.24;34.05
41078;BME280;26823;42.662;23.352;2023-02-23T08:05:27;94733.19;;;17.38;33.56
41078;BME280;26823;42.662;23.352;2023-02-23T08:07:53;94734.31;;;16.93;33.98
41078;BME280;26823;42.662;23.352;2023-02-23T08:10:20;94741.63;;;17.63;33.17
41078;BME280;26823;42.662;23.352;2023-02-23T08:12:46;94731.84;;;18.18;32.45
41078;BME280;26823;42.662;23.352;2023-02-23T08:15:11;94731.22;;;18.72;31.56
41078;BME280;26823;42.662;23.352;2023-02-23T08:17:37;94720.69;;;19.04;31.26
41078;BME280;26823;42.662;23.352;2023-02-23T08:20:04;94723.72;;;18.90;31.23
41078;BME280;26823;42.662;23.352;2023-02-23T08:22:30;94730.50;;;19.94;30.03
41078;BME280;26823;42.662;23.352;2023-02-23T08:24:55;94718.88;;;19.30;30.54
41078;BME280;26823;42.662;23.352;2023-02-23T08:27:21;94728.69;;;19.85;29.75
41078;BME280;26823;42.662;23.352;2023-02-23T08:29:46;94729.72;;;18.24;32.12
41078;BME280;26823;42.662;23.352;2023-02-23T08:32:12;94724.94;;;16.68;35.10
41078;BME280;26823;42.662;23.352;2023-02-23T08:34:39;94730.19;;;15.89;36.24
41078;BME280;26823;42.662;23.352;2023-02-23T08:37:05;94722.66;;;15.63;36.69
41078;BME280;26823;42.662;23.352;2023-02-23T08:39:31;94716.69;;;16.24;35.89
41078;BME280;26823;42.662;23.352;2023-02-23T08:41:56;94731.16;;;16.42;35.39
41078;BME280;26823;42.662;23.352;2023-02-23T08:44:22;94729.16;;;17.27;34.34
41078;BME280;26823;42.662;23.352;2023-02-23T08:46:47;94714.16;;;16.37;35.62
41078;BME280;26823;42.662;23.352;2023-02-23T08:49:13;94705.44;;;16.26;35.75
41078;BME280;26823;42.662;23.352;2023-02-23T08:51:38;94705.03;;;16.59;35.21
41078;BME280;26823;42.662;23.352;2023-02-23T08:54:05;94706.16;;;15.37;37.23
41078;BME280;26823;42.662;23.352;2023-02-23T08:56:36;94721.59;;;15.73;36.60
41078;BME280;26823;42.662;23.352;2023-02-23T08:59:02;94708.38;;;16.47;35.35
41078;BME280;26823;42.662;23.352;2023-02-23T09:01:28;94709.41;;;17.95;33.01
41078;BME280;26823;42.662;23.352;2023-02-23T09:03:53;94724.34;;;18.66;31.70
41078;BME280;26823;42.662;23.352;2023-02-23T09:06:22;94708.34;;;18.98;31.34
41078;BME280;26823;42.662;23.352;2023-02-23T09:08:48;94719.09;;;19.92;29.42
41078;BME280;26823;42.662;23.352;2023-02-23T09:11:13;94695.84;;;20.88;28.00
41078;BME280;26823;42.662;23.352;2023-02-23T09:13:39;94709.94;;;20.49;28.69
41078;BME280;26823;42.662;23.352;2023-02-23T09:16:10;94720.34;;;19.94;29.15
41078;BME280;26823;42.662;23.352;2023-02-23T09:18:36;94713.19;;;19.81;29.86
41078;BME280;26823;42.662;23.352;2023-02-23T09:21:07;94717.88;;;18.71;31.03
41078;BME280;26823;42.662;23.352;2023-02-23T09:23:36;94715.91;;;19.01;31.25
41078;BME280;26823;42.662;23.352;2023-02-23T09:26:06;94714.38;;;19.46;30.69
41078;BME280;26823;42.662;23.352;2023-02-23T09:28:34;94715.66;;;19.95;29.54
41078;BME280;26823;42.662;23.352;2023-02-23T09:31:08;94713.56;;;18.61;31.89
41078;BME280;26823;42.662;23.352;2023-02-23T09:33:34;94712.19;;;17.69;33.08
41078;BME280;26823;42.662;23.352;2023-02-23T09:36:06;94702.75;;;18.05;32.77
41078;BME280;26823;42.662;23.352;2023-02-23T09:38:32;94711.81;;;19.75;30.37
41078;BME280;26823;42.662;23.352;2023-02-23T09:40:57;94719.31;;;20.85;28.67
41078;BME280;26823;42.662;23.352;2023-02-23T09:43:44;94715.94;;;21.74;27.74
41078;BME280;26823;42.662;23.352;2023-02-23T09:46:29;94721.50;;;22.54;26.22
41078;BME280;26823;42.662;23.352;2023-02-23T09:49:00;94696.97;;;20.99;27.55
41078;BME280;26823;42.662;23.352;2023-02-23T09:51:26;94714.94;;;20.97;27.95
41078;BME280;26823;42.662;23.352;2023-02-23T09:53:55;94707.50;;;21.66;26.79
41078;BME280;26823;42.662;23.352;2023-02-23T09:56:47;94697.84;;;22.37;25.77
41078;BME280;26823;42.662;23.352;2023-02-23T09:59:19;94704.28;;;22.76;25.56
41078;BME280;26823;42.662;23.352;2023-02-23T10:06:57;94699.00;;;23.23;24.04
41078;BME280;26823;42.662;23.352;2023-02-23T10:18:08;94687.66;;;20.26;28.40
41078;BME280;26823;42.662;23.352;2023-02-23T10:23:05;94679.38;;;22.37;25.96
41078;BME280;26823;42.662;23.352;2023-02-23T10:25:35;94685.81;;;22.96;25.21
41078;BME280;26823;42.662;23.352;2023-02-23T10:28:02;94678.25;;;22.93;25.22
41078;BME280;26823;42.662;23.352;2023-02-23T10:30:32;94669.22;;;22.93;25.10
41078;BME280;26823;42.662;23.352;2023-02-23T10:33:33;94660.69;;;22.62;25.17
41078;BME280;26823;42.662;23.352;2023-02-23T10:36:15;94657.22;;;23.05;25.11
41078;BME280;26823;42.662;23.352;2023-02-23T10:38:41;94639.78;;;22.61;25.14
41078;BME280;26823;42.662;23.352;2023-02-23T10:41:08;94667.63;;;23.93;23.81
41078;BME280;26823;42.662;23.352;2023-02-23T10:43:34;94655.44;;;23.32;24.65
41078;BME280;26823;42.662;23.352;2023-02-23T10:45:59;94649.69;;;23.02;25.36
41078;BME280;26823;42.662;23.352;2023-02-23T10:48:29;94652.03;;;23.19;24.26
41078;BME280;26823;42.662;23.352;2023-02-23T10:50:57;94645.97;;;23.33;24.75
41078;BME280;26823;42.662;23.352;2023-02-23T10:53:31;94640.75;;;23.28;24.22
41078;BME280;26823;42.662;23.352;2023-02-23T10:56:18;94660.78;;;25.18;21.91
41078;BME280;26823;42.662;23.352;2023-02-23T11:01:11;94646.84;;;24.80;22.42
41078;BME280;26823;42.662;23.352;2023-02-23T11:03:45;94636.97;;;25.10;21.93
41078;BME280;26823;42.662;23.352;2023-02-23T11:06:34;94642.22;;;25.18;21.83
41078;BME280;26823;42.662;23.352;2023-02-23T11:09:21;94632.94;;;25.03;21.81
41078;BME280;26823;42.662;23.352;2023-02-23T11:11:59;94619.63;;;25.47;21.81
41078;BME280;26823;42.662;23.352;2023-02-23T11:14:28;94624.13;;;23.05;23.62
41078;BME280;26823;42.662;23.352;2023-02-23T11:16:55;94616.13;;;21.16;26.37
41078;BME280;26823;42.662;23.352;2023-02-23T11:19:41;94624.31;;;22.57;24.74
41078;BME280;26823;42.662;23.352;2023-02-23T11:22:18;94615.25;;;23.77;23.39
41078;BME280;26823;42.662;23.352;2023-02-23T11:24:48;94616.78;;;24.48;23.01
41078;BME280;26823;42.662;23.352;2023-02-23T11:27:23;94614.13;;;25.16;23.73
41078;BME280;26823;42.662;23.352;2023-02-23T11:29:51;94616.44;;;24.53;22.91
41078;BME280;26823;42.662;23.352;2023-02-23T11:32:21;94610.50;;;24.78;22.19
41078;BME280;26823;42.662;23.352;2023-02-23T11:37:46;94605.34;;;24.23;23.55
41078;BME280;26823;42.662;23.352;2023-02-23T11:42:55;94600.22;;;23.52;23.97
41078;BME280;26823;42.662;23.352;2023-02-23T11:45:24;94592.78;;;23.13;24.44
41078;BME280;26823;42.662;23.352;2023-02-23T11:47:54;94597.69;;;22.45;24.78
41078;BME280;26823;42.662;23.352;2023-02-23T11:50:21;94585.41;;;22.07;25.44
41078;BME280;26823;42.662;23.352;2023-02-23T11:52:53;94587.50;;;22.65;25.14
41078;BME280;26823;42.662;23.352;2023-02-23T11:55:19;94578.16;;;21.66;25.94
41078;BME280;26823;42.662;23.352;2023-02-23T11:57:45;94560.59;;;21.11;26.63
41078;BME280;26823;42.662;23.352;2023-02-23T12:00:22;94552.38;;;19.05;29.00
41078;BME280;26823;42.662;23.352;2023-02-23T12:02:51;94563.47;;;18.54;30.39
41078;BME280;26823;42.662;23.352;2023-02-23T12:05:28;94560.34;;;19.94;28.62
41078;BME280;26823;42.662;23.352;2023-02-23T12:08:12;94572.06;;;20.44;28.17
41078;BME280;26823;42.662;23.352;2023-02-23T12:10:44;94578.47;;;21.49;26.49
41078;BME280;26823;42.662;23.352;2023-02-23T12:13:33;94580.41;;;20.47;27.15
41078;BME280;26823;42.662;23.352;2023-02-23T12:21:28;94570.69;;;21.99;25.77
41078;BME280;26823;42.662;23.352;2023-02-23T12:26:54;94565.19;;;21.83;26.32
41078;BME280;26823;42.662;23.352;2023-02-23T12:29:54;94566.28;;;20.74;27.72
41078;BME280;26823;42.662;23.352;2023-02-23T12:35:01;94559.19;;;20.19;28.65
41078;BME280;26823;42.662;23.352;2023-02-23T12:37:36;94567.09;;;19.96;29.31
41078;BME280;26823;42.662;23.352;2023-02-23T12:40:13;94556.56;;;19.61;29.41
41078;BME280;26823;42.662;23.352;2023-02-23T12:43:00;94560.81;;;19.00;30.76
41078;BME280;26823;42.662;23.352;2023-02-23T12:45:34;94552.63;;;18.24;31.88
41078;BME280;26823;42.662;23.352;2023-02-23T12:48:13;94555.09;;;18.38;32.26
41078;BME280;26823;42.662;23.352;2023-02-23T12:50:54;94546.69;;;17.63;32.89
41078;BME280;26823;42.662;23.352;2023-02-23T13:01:56;94546.53;;;18.19;32.24
41078;BME280;26823;42.662;23.352;2023-02-23T13:12:55;94552.91;;;16.68;34.90
41078;BME280;26823;42.662;23.352;2023-02-23T13:18:33;94544.59;;;16.73;35.43
41078;BME280;26823;42.662;23.352;2023-02-23T13:21:40;94540.69;;;16.92;35.08
41078;BME280;26823;42.662;23.352;2023-02-23T13:24:25;94550.50;;;16.93;34.37
41078;BME280;26823;42.662;23.352;2023-02-23T13:29:36;94547.06;;;17.14;34.16
41078;BME280;26823;42.662;23.352;2023-02-23T13:32:07;94541.81;;;16.91;34.80
41078;BME280;26823;42.662;23.352;2023-02-23T13:34:42;94537.41;;;17.16;34.58
41078;BME280;26823;42.662;23.352;2023-02-23T13:37:11;94532.56;;;17.22;34.20
41078;BME280;26823;42.662;23.352;2023-02-23T13:39:45;94535.72;;;17.71;33.72
41078;BME280;26823;42.662;23.352;2023-02-23T13:45:34;94540.34;;;17.02;34.68
41078;BME280;26823;42.662;23.352;2023-02-23T13:56:03;94541.47;;;17.49;33.61
41078;BME280;26823;42.662;23.352;2023-02-23T13:58:31;94539.16;;;17.59;33.04
41078;BME280;26823;42.662;23.352;2023-02-23T14:01:17;94547.03;;;17.61;32.97
41078;BME280;26823;42.662;23.352;2023-02-23T14:03:51;94545.38;;;17.69;33.15
41078;BME280;26823;42.662;23.352;2023-02-23T14:06:20;94537.97;;;17.69;33.22
41078;BME280;26823;42.662;23.352;2023-02-23T14:08:59;94542.06;;;17.54;33.46
41078;BME280;26823;42.662;23.352;2023-02-23T14:14:03;94535.47;;;17.55;32.93
41078;BME280;26823;42.662;23.352;2023-02-23T14:16:32;94536.28;;;17.56;33.07
41078;BME280;26823;42.662;23.352;2023-02-23T14:19:09;94540.97;;;17.47;33.31
41078;BME280;26823;42.662;23.352;2023-02-23T14:24:13;94541.94;;;17.51;34.20
41078;BME280;26823;42.662;23.352;2023-02-23T14:26:44;94535.31;;;16.22;36.93
41078;BME280;26823;42.662;23.352;2023-02-23T14:37:36;94543.31;;;16.09;39.99
41078;BME280;26823;42.662;23.352;2023-02-23T14:40:17;94537.41;;;15.41;39.91
41078;BME280;26823;42.662;23.352;2023-02-23T14:42:49;94539.94;;;15.37;40.22
41078;BME280;26823;42.662;23.352;2023-02-23T14:47:46;94547.84;;;15.56;40.21
41078;BME280;26823;42.662;23.352;2023-02-23T14:50:23;94558.66;;;15.30;40.83
41078;BME280;26823;42.662;23.352;2023-02-23T14:52:50;94549.38;;;15.31;40.91
41078;BME280;26823;42.662;23.352;2023-02-23T14:55:23;94557.28;;;15.01;41.08
41078;BME280;26823;42.662;23.352;2023-02-23T14:57:49;94550.72;;;14.71;42.18
41078;BME280;26823;42.662;23.352;2023-02-23T15:06:09;94525.94;;;14.13;43.29
41078;BME280;26823;42.662;23.352;2023-02-23T15:08:28;94551.06;;;13.96;44.15
41078;BME280;26823;42.662;23.352;2023-02-23T15:11:03;94560.19;;;14.14;44.69
41078;BME280;26823;42.662;23.352;2023-02-23T15:13:40;94562.56;;;13.79;45.04
41078;BME280;26823;42.662;23.352;2023-02-23T15:16:10;94569.53;;;13.71;45.32
41078;BME280;26823;42.662;23.352;2023-02-23T15:18:41;94565.03;;;13.52;45.37
41078;BME280;26823;42.662;23.352;2023-02-23T15:21:19;94566.44;;;13.50;45.66
41078;BME280;26823;42.662;23.352;2023-02-23T15:23:53;94578.09;;;13.36;45.81
41078;BME280;26823;42.662;23.352;2023-02-23T15:26:29;94586.41;;;13.26;46.04
41078;BME280;26823;42.662;23.352;2023-02-23T15:31:38;94591.94;;;13.21;45.92
41078;BME280;26823;42.662;23.352;2023-02-23T15:34:09;94597.47;;;13.16;46.39
41078;BME280;26823;42.662;23.352;2023-02-23T15:36:35;94594.28;;;13.14;45.98
41078;BME280;26823;42.662;23.352;2023-02-23T15:39:05;94603.59;;;12.94;46.85
41078;BME280;26823;42.662;23.352;2023-02-23T15:41:36;94615.25;;;12.94;46.95